Terminal Aerodrome Forecast
Issued by NWS Charleston, WV

Current Version | Previous Version | Graphics & Text | Print | Product List | Glossary On
Versions: 1 2 3 4 5 6 7 8 9 10 11 12 13 14 15 16 17 18 19 20 21 22 23 24 25 26 27 28
000
FTUS41 KRLX 200200 AAA
TAFEKN
TAF AMD
KEKN 200228Z 2002/2024 VRB03KT 4SM BR SCT120
     FM200500 00000KT 2SM BR SCT002
      TEMPO 2005/2009 3/4SM BR BKN002
     FM200900 00000KT 2SM BR SCT005 BKN025
      TEMPO 2009/2012 1SM TSRA BR BKN020CB
     FM201200 VRB03KT 3SM -SHRA BR OVC020
     FM201600 22003KT 5SM HZ BKN025
     FM201900 25005KT 6SM HZ BKN035=

USA.gov is the U.S. government's official web portal to all federal, state and local government web resources and services.